WetterOnline ( https://www.wetteronline.de )

Wetter aktuell Nürnberg

Aktuelles Wetter: Roth (386m)

6-stündlich | Neueste Meldungen
Ortszeit Temperatur Wetter
Di, 20.10. 14:00 10.8° C fast wolkenlos
Di, 20.10. 8:00 1.8° C wolkig
Di, 20.10. 2:00 2.6° C wolkig
Mo, 19.10. 20:00 5.6° C wolkig
Mo, 19.10. 14:00 9.8° C bedeckt
Mo, 19.10. 8:00 5.4° C bedeckt
Mo, 19.10. 2:00 5.3° C bedeckt
So, 18.10. 20:00 6.0° C bedeckt
Ortszeit Temperatur Wetter
Di, 20.10. 19:00 9.6° C bewölkt
Di, 20.10. 18:40 9.7° C bewölkt
Di, 20.10. 18:30 9.3° C wolkig
Di, 20.10. 18:20 9.3° C wolkig
Di, 20.10. 18:10 9.6° C wolkig
Di, 20.10. 18:00 10.6° C wolkig
Di, 20.10. 17:50 10.6° C wolkig
Di, 20.10. 17:30 11.4° C bewölkt
Di, 20.10. 17:00 12.1° C leicht bewölkt
Di, 20.10. 16:30 12.5° C wolkig
Di, 20.10. 16:00 12.7° C wolkig
Ortszeit Relative Feuchte Sichtweite
Di, 20.10. 14:00 67% 45 km
Di, 20.10. 8:00 99% 7 km
Di, 20.10. 2:00 90% 26 km
Mo, 19.10. 20:00 88% 30 km
Mo, 19.10. 14:00 66% 28 km
Mo, 19.10. 8:00 91% 17 km
Mo, 19.10. 2:00 94% 21 km
So, 18.10. 20:00 88% 35 km
Ortszeit Relative Feuchte Sichtweite
Di, 20.10. 19:00 82% 40 km
Di, 20.10. 18:40 82% -
Di, 20.10. 18:30 86% 40 km
Di, 20.10. 18:20 86% -
Di, 20.10. 18:10 84% -
Di, 20.10. 18:00 78% 40 km
Di, 20.10. 17:50 78% -
Di, 20.10. 17:30 74% 45 km
Di, 20.10. 17:00 71% 45 km
Di, 20.10. 16:30 68% 45 km
Di, 20.10. 16:00 65% 30 km
Ortszeit Niederschlagsmenge Niederschlagsart
Di, 20.10. 14:00 0.0 l/m2 in 6 Std. -
Di, 20.10. 8:00 0.0 l/m2 in 12 Std. -
Di, 20.10. 2:00 0.0 l/m2 in 6 Std. -
Mo, 19.10. 20:00 0.1 l/m2 in 12 Std. -
Mo, 19.10. 14:00 0.1 l/m2 in 6 Std. Regen
Mo, 19.10. 8:00 0.0 l/m2 in 12 Std. -
Mo, 19.10. 2:00 0.0 l/m2 in 6 Std. -
So, 18.10. 20:00 0.0 l/m2 in 12 Std. -
Ortszeit Niederschlagsmenge Niederschlagsart
Di, 20.10. 19:00 0.0 l/m2 in 1 Std. -
Di, 20.10. 18:40 keine Meldung -
Di, 20.10. 18:30 0.0 l/m2 in 1 Std. -
Di, 20.10. 18:20 keine Meldung -
Di, 20.10. 18:10 keine Meldung -
Di, 20.10. 18:00 0.0 l/m2 in 1 Std. -
Di, 20.10. 17:50 keine Meldung -
Di, 20.10. 17:30 0.0 l/m2 in 1 Std. -
Di, 20.10. 17:00 0.0 l/m2 in 1 Std. -
Di, 20.10. 16:30 0.0 l/m2 in 1 Std. -
Di, 20.10. 16:00 0.0 l/m2 in 1 Std. -
Ortszeit Stärke Spitze Richtung
km/h Bft. km/h Grad Sektor
Di, 20.10. 14:00 13 3 26 140° SO
Di, 20.10. 8:00 11 2 19 140° SO
Di, 20.10. 2:00 7 2 14 150° SO
Mo, 19.10. 20:00 7 2 14 110° O
Mo, 19.10. 14:00 7 2 14 140° SO
Mo, 19.10. 8:00 9 2 11 140° SO
Mo, 19.10. 2:00 0 0 11 - -
So, 18.10. 20:00 4 1 29 240° SW
Ortszeit Stärke Spitze Richtung
km/h Bft. km/h Grad Sektor
Di, 20.10. 19:00 13 3 19 140° SO
Di, 20.10. 18:40 11 2 - 130° SO
Di, 20.10. 18:30 7 2 11 130° SO
Di, 20.10. 18:20 7 2 - 130° SO
Di, 20.10. 18:10 7 2 - 130° SO
Di, 20.10. 18:00 7 2 18 150° SO
Di, 20.10. 17:50 7 2 - 150° SO
Di, 20.10. 17:30 9 2 17 130° SO
Di, 20.10. 17:00 9 2 17 140° SO
Di, 20.10. 16:30 7 2 18 140° SO
Di, 20.10. 16:00 11 2 24 150° SO
Ortszeit Untergrenze Bedeckung Gattung
total tief tief mittel hoch
Di, 20.10. 14:00 9000 m 2/8 0/8 - - -
Di, 20.10. 8:00 10500 m 7/8 0/8 - - -
Di, 20.10. 2:00 7500 m 7/8 0/8 - - -
Mo, 19.10. 20:00 1470 m 5/8 5/8 - - -
Mo, 19.10. 14:00 1500 m 8/8 8/8 - - -
Mo, 19.10. 8:00 1260 m 8/8 8/8 - - -
Mo, 19.10. 2:00 1500 m 8/8 8/8 - - -
So, 18.10. 20:00 1050 m 8/8 8/8 - - -
Ortszeit Bedeckungsgrad in Achtel und Wolkenuntergrenze
Di, 20.10. 19:00 4(6000m) 7(6600m) 8(7500m)
Di, 20.10. 18:40 5(6600m) 5(7200m) 8(8100m)
Di, 20.10. 18:30 4(8100m) 8(8700m) 8(8700m)
Di, 20.10. 18:20 4(8100m) 8(8700m)
Di, 20.10. 18:10 8(8700m)
Di, 20.10. 18:00 7(9000m) 8(9000m)
Di, 20.10. 17:50 7(9000m) 8(9000m)
Di, 20.10. 17:30 7(6300m) 7(9000m) 7(10500m)
Di, 20.10. 17:00 4(7500m) 4(8100m) 7(10500m)
Di, 20.10. 16:30 3(8100m) 4(9000m) 7(10500m)
Di, 20.10. 16:00 3(9000m) 7(10500m) 7(10500m)
Ortszeit Luftdruck NN (hPa) Tendenz (hPa in 3 Std.)
Di, 20.10. 14:00 1017 - 1,0
Di, 20.10. 8:00 1020 - 0,7
Di, 20.10. 2:00 1022 - 1,8
Mo, 19.10. 20:00 1023 0,0
Mo, 19.10. 14:00 1024 - 1,0
Mo, 19.10. 8:00 1025 0,0
Mo, 19.10. 2:00 1025 + 0,1
So, 18.10. 20:00 1024 + 1,2
Ortszeit Luftdruck NN (hPa) Tendenz (hPa in 3 Std.)
Di, 20.10. 19:00 1016 - 0,1
Di, 20.10. 18:40 1016 keine Meldung
Di, 20.10. 18:30 1016 + 0,2
Di, 20.10. 18:20 1016 keine Meldung
Di, 20.10. 18:10 1016 keine Meldung
Di, 20.10. 18:00 1016 - 0,7
Di, 20.10. 17:50 1016 keine Meldung
Di, 20.10. 17:30 1016 - 1,1
Di, 20.10. 17:00 1016 - 0,8
Di, 20.10. 16:30 1016 - 1,2
Di, 20.10. 16:00 1016 - 1,4
Ortszeit Schneehöhe (cm)
Di, 20.10. 14:00 0
Di, 20.10. 8:00 0
Di, 20.10. 2:00 0
Mo, 19.10. 20:00 0
Mo, 19.10. 14:00 0
Mo, 19.10. 8:00 0
Mo, 19.10. 2:00 0
So, 18.10. 20:00 0
Ortszeit Schneehöhe (cm)
Di, 20.10. 19:00 0
Di, 20.10. 18:40 0
Di, 20.10. 18:30 0
Di, 20.10. 18:20 0
Di, 20.10. 18:10 0
Di, 20.10. 18:00 0
Di, 20.10. 17:50 0
Di, 20.10. 17:30 0
Di, 20.10. 17:00 0
Di, 20.10. 16:30 0
Di, 20.10. 16:00 0
Link zu dieser Seite / Seite empfehlen

Das Wetter in ...